createdAt,value
2022-08-05T00:00:03.764Z,23.91
2022-08-05T00:01:27.239Z,23.92
2022-08-05T00:02:07.290Z,23.88
2022-08-05T00:03:03.716Z,23.85
2022-08-05T00:04:03.717Z,23.86
2022-08-05T00:05:05.806Z,23.79
2022-08-05T00:06:21.163Z,23.73
2022-08-05T00:07:27.247Z,23.59
2022-08-05T00:08:04.778Z,23.48
2022-08-05T00:09:03.650Z,23.44
2022-08-05T00:10:03.622Z,23.39
2022-08-05T00:11:03.618Z,23.33
2022-08-05T00:12:03.600Z,23.36
2022-08-05T00:13:03.589Z,23.41
2022-08-05T00:14:12.746Z,23.42
2022-08-05T00:15:14.166Z,23.41
2022-08-05T00:16:04.551Z,23.39
2022-08-05T00:17:03.550Z,23.39
2022-08-05T00:18:03.532Z,23.39
2022-08-05T00:19:03.514Z,23.37
2022-08-05T00:20:03.500Z,23.34
2022-08-05T00:21:03.483Z,23.31
2022-08-05T00:22:03.467Z,23.22
2022-08-05T00:23:13.030Z,23.21
2022-08-05T00:24:10.723Z,23.18
2022-08-05T00:25:04.650Z,23.15
2022-08-05T00:26:03.415Z,23.11
2022-08-05T00:27:04.742Z,23.11
2022-08-05T00:28:04.397Z,23.11
2022-08-05T00:29:03.390Z,23.03
2022-08-05T00:30:04.310Z,22.95
2022-08-05T00:31:04.372Z,22.91
2022-08-05T00:32:13.364Z,22.92
2022-08-05T00:33:04.328Z,22.91
2022-08-05T00:34:53.477Z,22.89
2022-08-05T00:35:07.457Z,22.89
2022-08-05T00:36:15.912Z,22.89
2022-08-05T00:37:09.672Z,22.86
2022-08-05T00:38:04.260Z,22.86
2022-08-05T00:39:04.330Z,22.83
2022-08-05T00:40:03.251Z,22.81
2022-08-05T00:41:04.229Z,22.80
2022-08-05T00:42:04.216Z,22.80
2022-08-05T00:43:07.606Z,22.83
2022-08-05T00:44:03.197Z,22.83
2022-08-05T00:45:03.173Z,22.85
2022-08-05T00:46:03.161Z,22.85
2022-08-05T00:47:04.086Z,22.88
2022-08-05T00:48:05.329Z,22.83
2022-08-05T00:49:03.146Z,22.89
2022-08-05T00:50:03.104Z,22.91
2022-08-05T00:51:49.912Z,22.88
2022-08-05T00:52:04.075Z,22.86
2022-08-05T00:53:03.083Z,22.85
2022-08-05T00:54:04.304Z,22.77
2022-08-05T00:55:03.047Z,22.76
2022-08-05T00:56:03.026Z,22.71
2022-08-05T00:57:03.018Z,22.62
2022-08-05T00:58:02.999Z,22.51
2022-08-05T00:59:02.998Z,22.46
2022-08-05T01:00:02.979Z,22.37
2022-08-05T01:01:03.076Z,22.31
2022-08-05T01:02:03.969Z,22.28
2022-08-05T01:03:02.942Z,22.21
2022-08-05T01:04:03.930Z,22.11
2022-08-05T01:05:05.069Z,22.09
2022-08-05T01:06:05.585Z,22.03
2022-08-05T01:07:05.144Z,22.01
2022-08-05T01:08:40.112Z,22.01
2022-08-05T01:09:03.865Z,22.00
2022-08-05T01:10:02.849Z,22.01
2022-08-05T01:11:03.835Z,22.01
2022-08-05T01:12:09.213Z,22.03
2022-08-05T01:13:05.408Z,22.03
2022-08-05T01:14:03.804Z,22.07
2022-08-05T01:15:04.117Z,22.06
2022-08-05T01:16:02.765Z,22.07
2022-08-05T01:17:02.768Z,22.07
2022-08-05T01:18:02.743Z,22.04
2022-08-05T01:19:03.695Z,22.06
2022-08-05T01:20:03.558Z,22.06
2022-08-05T01:21:02.712Z,22.04
2022-08-05T01:22:02.689Z,22.01
2022-08-05T01:23:13.581Z,21.98
2022-08-05T01:24:13.073Z,22.01
2022-08-05T01:25:04.592Z,21.98
2022-08-05T01:26:02.631Z,22.01
2022-08-05T01:27:17.770Z,22.06
2022-08-05T01:28:03.622Z,22.04
2022-08-05T01:29:04.262Z,22.06
2022-08-05T01:30:02.584Z,22.03
2022-08-05T01:31:03.053Z,22.06
2022-08-05T01:32:02.562Z,22.07
2022-08-05T01:33:02.563Z,22.09
2022-08-05T01:34:02.532Z,22.11
2022-08-05T01:35:02.523Z,22.13
2022-08-05T01:36:02.511Z,22.15
2022-08-05T01:37:02.494Z,22.19
2022-08-05T01:38:02.494Z,22.18
2022-08-05T01:39:02.552Z,22.19
2022-08-05T01:40:02.484Z,22.18
2022-08-05T01:41:02.452Z,22.16
2022-08-05T01:42:02.436Z,22.16
2022-08-05T01:43:02.445Z,22.15
2022-08-05T01:44:02.403Z,22.09
2022-08-05T01:45:03.419Z,22.11
2022-08-05T01:46:07.204Z,22.11
2022-08-05T01:48:12.584Z,22.06
2022-08-05T01:49:23.279Z,22.03
2022-08-05T01:50:15.630Z,22.00
2022-08-05T01:51:13.089Z,21.98
2022-08-05T01:52:17.422Z,21.98
2022-08-05T01:53:13.529Z,22.01
2022-08-05T01:54:12.495Z,21.98
2022-08-05T01:55:13.486Z,22.00
2022-08-05T01:56:12.468Z,21.97
2022-08-05T01:58:12.772Z,21.90
2022-08-05T01:58:15.875Z,21.91
2022-08-05T01:59:12.428Z,21.90
2022-08-05T02:00:12.566Z,21.88
2022-08-05T02:01:12.406Z,21.88
2022-08-05T02:02:12.424Z,21.84
2022-08-05T02:03:24.108Z,21.82
2022-08-05T02:04:13.361Z,21.81
2022-08-05T02:05:12.404Z,21.80
2022-08-05T02:06:24.048Z,21.78
2022-08-05T02:07:22.437Z,21.77
2022-08-05T02:08:13.320Z,21.77
2022-08-05T02:09:14.752Z,21.73
2022-08-05T02:10:17.184Z,21.66
2022-08-05T02:11:13.272Z,21.63
2022-08-05T02:12:12.252Z,21.62
2022-08-05T02:13:16.151Z,21.58
2022-08-05T02:14:12.421Z,21.62
2022-08-05T02:15:12.631Z,21.55
2022-08-05T02:16:16.486Z,21.51
2022-08-05T02:17:17.085Z,21.45
2022-08-05T02:18:31.308Z,21.47
2022-08-05T02:19:13.165Z,21.43
2022-08-05T02:20:12.155Z,21.44
2022-08-05T02:21:14.943Z,21.41
2022-08-05T02:22:17.419Z,21.37
2022-08-05T02:23:13.529Z,21.37
2022-08-05T02:24:12.098Z,21.35
2022-08-05T02:25:13.095Z,21.34
2022-08-05T02:26:12.079Z,21.34
2022-08-05T02:27:12.064Z,21.29
2022-08-05T02:28:12.076Z,21.30
2022-08-05T02:29:21.716Z,21.29
2022-08-05T02:30:13.020Z,21.26
2022-08-05T02:31:14.642Z,21.25
2022-08-05T02:32:11.990Z,21.22
2022-08-05T02:33:12.997Z,21.20
2022-08-05T02:34:13.924Z,21.20
2022-08-05T02:35:14.286Z,21.16
2022-08-05T02:36:13.731Z,21.16
2022-08-05T02:37:11.937Z,21.13
2022-08-05T02:38:11.933Z,21.10
2022-08-05T02:39:12.938Z,21.11
2022-08-05T02:40:11.882Z,21.11
2022-08-05T02:41:17.063Z,21.07
2022-08-05T02:42:26.043Z,21.08
2022-08-05T02:43:12.870Z,21.05
2022-08-05T02:44:13.171Z,21.04
2022-08-05T02:45:11.825Z,21.01
2022-08-05T02:46:11.805Z,21.03
2022-08-05T02:47:11.795Z,21.04
2022-08-05T02:48:12.990Z,21.03
2022-08-05T02:49:11.777Z,21.04
2022-08-05T02:50:11.777Z,21.03
2022-08-05T02:51:11.747Z,21.03
2022-08-05T02:52:13.588Z,21.01
2022-08-05T02:53:18.955Z,21.00
2022-08-05T02:54:34.842Z,20.97
2022-08-05T02:55:12.699Z,21.01
2022-08-05T02:56:18.624Z,20.98
2022-08-05T02:58:11.773Z,21.00
2022-08-05T02:58:13.217Z,20.95
2022-08-05T02:59:11.648Z,20.97
2022-08-05T03:00:11.623Z,20.93
2022-08-05T03:01:11.631Z,20.90
2022-08-05T03:02:11.621Z,20.93
2022-08-05T03:03:11.593Z,20.86
2022-08-05T03:04:14.124Z,20.89
2022-08-05T03:05:11.572Z,20.86
2022-08-05T03:06:53.880Z,20.75
2022-08-05T03:07:21.438Z,20.65
2022-08-05T03:08:12.719Z,20.61
2022-08-05T03:09:11.509Z,20.61
2022-08-05T03:10:11.488Z,20.63
2022-08-05T03:11:54.329Z,20.58
2022-08-05T03:12:12.474Z,20.53
2022-08-05T03:13:51.581Z,20.56
2022-08-05T03:14:46.071Z,20.50
2022-08-05T03:15:41.712Z,20.53
2022-08-05T03:16:40.731Z,20.55
2022-08-05T03:17:41.732Z,20.50
2022-08-05T03:18:42.211Z,20.49
2022-08-05T03:19:41.879Z,20.50
2022-08-05T03:20:48.681Z,20.52
2022-08-05T03:21:48.820Z,20.49
2022-08-05T03:22:46.822Z,20.55
2022-08-05T03:23:41.615Z,20.55
2022-08-05T03:24:40.605Z,20.52
2022-08-05T03:26:30.474Z,20.55
2022-08-05T03:26:41.587Z,20.56
2022-08-05T03:28:00.188Z,20.50
2022-08-05T03:28:41.552Z,20.52
2022-08-05T03:29:45.565Z,20.48
2022-08-05T03:30:42.445Z,20.42
2022-08-05T03:31:56.825Z,20.42
2022-08-05T03:32:41.509Z,20.39
2022-08-05T03:33:51.102Z,20.41
2022-08-05T03:34:41.478Z,20.37
2022-08-05T03:35:41.629Z,20.34
2022-08-05T03:36:40.478Z,20.36
2022-08-05T03:37:45.874Z,20.34
2022-08-05T03:38:41.420Z,20.32
2022-08-05T03:39:57.741Z,20.32
2022-08-05T03:40:41.450Z,20.34
2022-08-05T03:41:46.914Z,20.32
2022-08-05T03:42:41.759Z,20.36
2022-08-05T03:44:08.074Z,20.34
2022-08-05T03:44:41.344Z,20.34
2022-08-05T03:45:55.089Z,20.41
2022-08-05T03:46:41.355Z,20.37
2022-08-05T03:47:41.370Z,20.34
2022-08-05T03:48:40.299Z,20.30
2022-08-05T03:49:51.969Z,20.32
2022-08-05T03:50:41.276Z,20.32
2022-08-05T03:52:37.774Z,20.33
2022-08-05T03:55:06.779Z,20.32
2022-08-05T03:55:50.442Z,20.39
2022-08-05T03:55:50.693Z,20.33
2022-08-05T03:56:04.637Z,20.37
2022-08-05T03:56:41.453Z,20.39
2022-08-05T03:57:42.559Z,20.36
2022-08-05T03:58:41.193Z,20.41
2022-08-05T03:59:46.519Z,20.46
2022-08-05T04:00:41.933Z,20.49
2022-08-05T04:01:40.212Z,20.53
2022-08-05T04:02:51.932Z,20.52
2022-08-05T04:03:41.098Z,20.52
2022-08-05T04:04:41.091Z,20.58
2022-08-05T04:05:40.203Z,20.50
2022-08-05T04:06:47.555Z,20.52
2022-08-05T04:07:53.046Z,20.52
2022-08-05T04:08:41.043Z,20.56
2022-08-05T04:09:40.012Z,20.58
2022-08-05T04:10:41.003Z,20.64
2022-08-05T04:11:47.621Z,20.63
2022-08-05T04:13:10.250Z,20.68
2022-08-05T04:14:10.242Z,20.68
2022-08-05T04:15:15.708Z,20.68
2022-08-05T04:16:11.221Z,20.75
2022-08-05T04:17:10.212Z,20.75
2022-08-05T04:18:12.748Z,20.79
2022-08-05T04:19:11.172Z,20.79
2022-08-05T04:20:10.172Z,20.80
2022-08-05T04:21:11.092Z,20.77
2022-08-05T04:22:12.078Z,20.80
2022-08-05T04:23:12.260Z,20.85
2022-08-05T04:24:19.242Z,20.88
2022-08-05T04:25:11.094Z,20.89
2022-08-05T04:26:10.096Z,20.90
2022-08-05T04:27:10.086Z,20.97
2022-08-05T04:28:11.339Z,20.98
2022-08-05T04:29:10.046Z,20.98
2022-08-05T04:30:10.046Z,21.00
2022-08-05T04:31:10.631Z,20.93
2022-08-05T04:32:10.017Z,20.95
2022-08-05T04:33:09.989Z,21.03
2022-08-05T04:34:31.189Z,21.03
2022-08-05T04:35:13.500Z,21.08
2022-08-05T04:36:38.579Z,21.10
2022-08-05T04:37:10.963Z,21.13
2022-08-05T04:38:09.929Z,21.13
2022-08-05T04:39:10.989Z,21.13
2022-08-05T04:40:09.910Z,21.18
2022-08-05T04:41:10.147Z,21.25
2022-08-05T04:42:09.888Z,21.25
2022-08-05T04:43:11.069Z,21.30
2022-08-05T04:44:10.851Z,21.32
2022-08-05T04:45:09.841Z,21.32
2022-08-05T04:46:09.842Z,21.30
2022-08-05T04:47:10.441Z,21.40
2022-08-05T04:48:16.418Z,21.40
2022-08-05T04:49:14.534Z,21.40
2022-08-05T04:50:11.501Z,21.35
2022-08-05T04:51:11.449Z,21.35
2022-08-05T04:52:09.755Z,21.38
2022-08-05T04:53:09.734Z,21.35
2022-08-05T04:54:09.838Z,21.41
2022-08-05T04:55:14.194Z,21.40
2022-08-05T04:56:32.852Z,21.41
2022-08-05T04:57:10.716Z,21.40
2022-08-05T04:58:09.706Z,21.38
2022-08-05T04:59:21.696Z,21.38
2022-08-05T05:00:10.716Z,21.35
2022-08-05T05:01:09.744Z,21.34
2022-08-05T05:02:36.709Z,21.40
2022-08-05T05:03:10.681Z,21.40
2022-08-05T05:04:09.590Z,21.41
2022-08-05T05:05:26.309Z,21.40
2022-08-05T05:06:38.944Z,21.40
2022-08-05T05:07:10.556Z,21.40
2022-08-05T05:08:14.472Z,21.37
2022-08-05T05:09:10.521Z,21.38
2022-08-05T05:10:09.518Z,21.38
2022-08-05T05:11:09.510Z,21.35
2022-08-05T05:12:09.496Z,21.30
2022-08-05T05:13:09.480Z,21.34
2022-08-05T05:14:09.471Z,21.30
2022-08-05T05:15:10.606Z,21.34
2022-08-05T05:16:09.443Z,21.37
2022-08-05T05:17:09.586Z,21.40
2022-08-05T05:18:09.422Z,21.41
2022-08-05T05:19:19.308Z,21.40
2022-08-05T05:20:10.386Z,21.40
2022-08-05T05:21:09.423Z,21.37
2022-08-05T05:22:22.645Z,21.44
2022-08-05T05:23:19.900Z,21.50
2022-08-05T05:24:10.346Z,21.50
2022-08-05T05:25:16.909Z,21.53
2022-08-05T05:26:10.318Z,21.53
2022-08-05T05:27:09.290Z,21.58
2022-08-05T05:28:09.397Z,21.56
2022-08-05T05:29:14.325Z,21.62
2022-08-05T05:30:15.454Z,21.67
2022-08-05T05:31:10.250Z,21.69
2022-08-05T05:32:12.564Z,21.80
2022-08-05T05:33:17.042Z,21.82
2022-08-05T05:34:10.202Z,21.90
2022-08-05T05:35:09.193Z,21.91
2022-08-05T05:36:09.192Z,22.00
2022-08-05T05:37:09.164Z,22.00
2022-08-05T05:38:13.163Z,22.04
2022-08-05T05:39:09.868Z,22.06
2022-08-05T05:40:09.133Z,22.11
2022-08-05T05:41:09.123Z,22.13
2022-08-05T05:42:09.103Z,22.13
2022-08-05T05:43:09.094Z,22.15
2022-08-05T05:44:37.036Z,22.21
2022-08-05T05:45:10.067Z,22.25
2022-08-05T05:46:15.776Z,22.23
2022-08-05T05:47:13.188Z,22.25
2022-08-05T05:48:10.069Z,22.31
2022-08-05T05:49:22.616Z,22.33
2022-08-05T05:50:09.997Z,22.31
2022-08-05T05:51:15.527Z,22.33
2022-08-05T05:52:12.976Z,22.31
2022-08-05T05:53:22.049Z,22.41
2022-08-05T05:54:11.660Z,22.36
2022-08-05T05:55:13.673Z,22.41
2022-08-05T05:56:08.929Z,22.40
2022-08-05T05:57:13.614Z,22.46
2022-08-05T05:58:09.890Z,22.46
2022-08-05T05:59:08.881Z,22.48
2022-08-05T06:00:08.860Z,22.48
2022-08-05T06:01:12.858Z,22.49
2022-08-05T06:02:08.842Z,22.53
2022-08-05T06:03:39.938Z,22.59
2022-08-05T06:04:11.330Z,22.56
2022-08-05T06:05:10.426Z,22.53
2022-08-05T06:06:09.803Z,22.58
2022-08-05T06:07:08.875Z,22.58
2022-08-05T06:08:08.773Z,22.58
2022-08-05T06:09:08.757Z,22.61
2022-08-05T06:10:10.502Z,22.64
2022-08-05T06:11:08.734Z,22.73
2022-08-05T06:12:09.799Z,22.78
2022-08-05T06:13:08.696Z,22.89
2022-08-05T06:14:08.677Z,22.93
2022-08-05T06:15:09.917Z,22.99
2022-08-05T06:16:29.806Z,23.06
2022-08-05T06:17:22.129Z,23.04
2022-08-05T06:18:09.641Z,23.21
2022-08-05T06:19:09.579Z,23.28
2022-08-05T06:20:08.609Z,23.39
2022-08-05T06:21:16.788Z,23.41
2022-08-05T06:22:09.575Z,23.45
2022-08-05T06:23:08.572Z,23.49
2022-08-05T06:24:12.022Z,23.63
2022-08-05T06:25:24.894Z,23.74
2022-08-05T06:26:13.657Z,23.79
2022-08-05T06:28:09.295Z,23.85
2022-08-05T06:28:11.703Z,23.89
2022-08-05T06:29:43.018Z,23.91
2022-08-05T06:30:20.107Z,23.97
2022-08-05T06:31:11.088Z,24.04
2022-08-05T06:32:24.803Z,24.11
2022-08-05T06:33:10.058Z,24.18
2022-08-05T06:34:09.150Z,24.23
2022-08-05T06:35:21.802Z,24.23
2022-08-05T06:36:10.069Z,24.38
2022-08-05T06:37:08.416Z,24.45
2022-08-05T06:38:11.228Z,24.53
2022-08-05T06:39:08.396Z,24.65
2022-08-05T06:40:08.336Z,24.74
2022-08-05T06:41:08.425Z,24.81
2022-08-05T06:42:08.316Z,24.78
2022-08-05T06:43:58.137Z,24.75
2022-08-05T06:44:09.288Z,24.81
2022-08-05T06:45:08.786Z,24.93
2022-08-05T06:46:08.279Z,25.04
2022-08-05T06:47:10.289Z,25.15
2022-08-05T06:48:44.270Z,25.12
2022-08-05T06:49:09.318Z,25.11
2022-08-05T06:50:08.210Z,25.03
2022-08-05T06:51:09.682Z,24.94
2022-08-05T06:52:08.189Z,24.93
2022-08-05T06:53:19.558Z,24.84
2022-08-05T06:54:09.162Z,24.76
2022-08-05T06:55:08.162Z,24.70
2022-08-05T06:56:25.787Z,24.60
2022-08-05T06:57:56.935Z,24.53
2022-08-05T06:58:29.097Z,24.48
2022-08-05T06:59:09.922Z,24.43
2022-08-05T07:00:09.845Z,24.41
2022-08-05T07:01:08.173Z,24.34
2022-08-05T07:02:09.087Z,24.28
2022-08-05T07:03:09.725Z,24.21
2022-08-05T07:04:08.036Z,24.19
2022-08-05T07:05:14.306Z,24.16
2022-08-05T07:06:14.228Z,24.18
2022-08-05T07:07:08.997Z,24.16
2022-08-05T07:08:10.659Z,24.25
2022-08-05T07:09:07.974Z,24.28
2022-08-05T07:10:07.958Z,24.33
2022-08-05T07:11:07.951Z,24.38
2022-08-05T07:12:08.929Z,24.41
2022-08-05T07:13:07.927Z,24.51
2022-08-05T07:14:07.989Z,24.58
2022-08-05T07:15:08.912Z,24.70
2022-08-05T07:16:07.881Z,24.76
2022-08-05T07:17:57.181Z,24.84
2022-08-05T07:18:11.569Z,24.93
2022-08-05T07:19:08.849Z,24.96
2022-08-05T07:21:08.821Z,25.21
2022-08-05T07:22:08.036Z,25.27
2022-08-05T07:23:07.791Z,25.37
2022-08-05T07:24:11.203Z,25.52
2022-08-05T07:25:09.569Z,25.61
2022-08-05T07:26:08.746Z,25.71
2022-08-05T07:27:08.973Z,25.77
2022-08-05T07:28:09.621Z,25.90
2022-08-05T07:29:07.708Z,25.98
2022-08-05T07:30:27.678Z,26.04
2022-08-05T07:31:08.695Z,26.12
2022-08-05T07:32:07.669Z,26.10
2022-08-05T07:33:09.398Z,26.08
2022-08-05T07:34:08.452Z,26.12
2022-08-05T07:36:05.299Z,26.20
2022-08-05T07:36:21.610Z,26.12
2022-08-05T07:37:09.138Z,26.20
2022-08-05T07:38:07.592Z,26.23
2022-08-05T07:39:07.645Z,26.42
2022-08-05T07:40:32.519Z,26.63
2022-08-05T07:42:07.742Z,26.79
2022-08-05T07:42:14.964Z,26.83
2022-08-05T07:43:20.211Z,26.89
2022-08-05T07:44:18.389Z,26.85
2022-08-05T07:45:09.413Z,27.03
2022-08-05T07:46:24.485Z,26.93
2022-08-05T07:47:08.486Z,26.85
2022-08-05T07:48:07.466Z,26.85
2022-08-05T07:49:07.966Z,26.80
2022-08-05T07:50:07.470Z,26.83
2022-08-05T07:51:08.659Z,26.75
2022-08-05T07:52:08.413Z,26.58
2022-08-05T07:53:07.396Z,26.52
2022-08-05T07:54:08.424Z,26.61
2022-08-05T07:55:43.983Z,26.63
2022-08-05T07:56:39.161Z,26.67
2022-08-05T07:57:18.067Z,26.68
2022-08-05T07:58:08.782Z,26.60
2022-08-05T07:59:08.668Z,26.56
2022-08-05T08:00:11.332Z,26.65
2022-08-05T08:01:12.417Z,26.76
2022-08-05T08:02:15.435Z,26.79
2022-08-05T08:03:13.919Z,26.83
2022-08-05T08:04:08.267Z,26.82
2022-08-05T08:05:07.262Z,26.86
2022-08-05T08:06:07.233Z,26.89
2022-08-05T08:07:07.587Z,26.83
2022-08-05T08:08:07.214Z,26.75
2022-08-05T08:09:08.195Z,26.71
2022-08-05T08:10:07.184Z,26.78
2022-08-05T08:11:08.815Z,26.85
2022-08-05T08:12:15.942Z,26.83
2022-08-05T08:13:08.146Z,26.73
2022-08-05T08:14:07.127Z,26.65
2022-08-05T08:15:09.638Z,26.70
2022-08-05T08:16:49.794Z,26.80
2022-08-05T08:17:09.040Z,26.86
2022-08-05T08:18:14.007Z,27.03
2022-08-05T08:19:08.070Z,27.07
2022-08-05T08:20:22.027Z,27.17
2022-08-05T08:21:09.804Z,27.42
2022-08-05T08:22:09.130Z,27.64
2022-08-05T08:23:07.010Z,27.70
2022-08-05T08:24:10.663Z,27.76
2022-08-05T08:25:16.178Z,27.83
2022-08-05T08:26:07.972Z,27.91
2022-08-05T08:27:07.264Z,27.95
2022-08-05T08:28:06.943Z,28.05
2022-08-05T08:29:45.216Z,28.07
2022-08-05T08:30:29.500Z,28.09
2022-08-05T08:31:07.952Z,28.22
2022-08-05T08:32:06.894Z,28.28
2022-08-05T08:33:08.376Z,28.35
2022-08-05T08:34:06.871Z,28.15
2022-08-05T08:35:06.869Z,28.25
2022-08-05T08:37:07.839Z,28.38
2022-08-05T08:38:06.838Z,28.00
2022-08-05T08:39:06.819Z,27.80
2022-08-05T08:40:07.799Z,27.66
2022-08-05T08:41:06.778Z,27.63
2022-08-05T08:42:10.713Z,27.52
2022-08-05T08:45:16.725Z,27.49
2022-08-05T08:45:19.601Z,27.58
2022-08-05T08:45:23.383Z,27.73
2022-08-05T08:46:10.031Z,27.64
2022-08-05T08:47:47.118Z,27.58
2022-08-05T08:48:12.528Z,27.47
2022-08-05T08:50:30.011Z,27.31
2022-08-05T08:50:31.766Z,27.23
2022-08-05T08:51:30.630Z,27.01
2022-08-05T08:52:13.597Z,26.86
2022-08-05T08:53:07.985Z,26.76
2022-08-05T08:54:06.674Z,26.71
2022-08-05T08:55:13.078Z,26.75
2022-08-05T08:56:07.591Z,26.67
2022-08-05T08:57:11.344Z,26.67
2022-08-05T08:58:07.556Z,26.61
2022-08-05T08:59:10.089Z,26.53
2022-08-05T09:00:07.527Z,26.53
2022-08-05T09:01:06.603Z,26.42
2022-08-05T09:02:08.628Z,26.42
2022-08-05T09:03:06.504Z,26.41
2022-08-05T09:04:06.480Z,26.39
2022-08-05T09:05:17.659Z,26.31
2022-08-05T09:06:11.064Z,26.28
2022-08-05T09:07:10.794Z,26.21
2022-08-05T09:08:07.421Z,26.21
2022-08-05T09:09:07.233Z,26.36
2022-08-05T09:10:06.402Z,26.46
2022-08-05T09:11:06.393Z,26.51
2022-08-05T09:12:19.971Z,26.45
2022-08-05T09:13:07.372Z,26.43
2022-08-05T09:14:54.003Z,26.41
2022-08-05T09:15:07.423Z,26.46
2022-08-05T09:16:06.316Z,26.48
2022-08-05T09:17:08.197Z,26.75
2022-08-05T09:18:06.295Z,26.89
2022-08-05T09:19:06.691Z,27.01
2022-08-05T09:20:06.282Z,27.13
2022-08-05T09:21:11.445Z,27.20
2022-08-05T09:22:22.777Z,27.35
2022-08-05T09:23:07.856Z,27.57
2022-08-05T09:24:06.809Z,27.79
2022-08-05T09:25:13.559Z,27.90
2022-08-05T09:26:09.189Z,27.79
2022-08-05T09:27:06.190Z,27.80
2022-08-05T09:28:06.547Z,27.91
2022-08-05T09:29:06.171Z,28.09
2022-08-05T09:30:06.662Z,28.17
2022-08-05T09:32:38.685Z,27.94
2022-08-05T09:32:51.841Z,27.93
2022-08-05T09:33:07.119Z,28.00
2022-08-05T09:34:06.102Z,28.13
2022-08-05T09:35:06.074Z,28.40
2022-08-05T09:36:11.669Z,28.64
2022-08-05T09:37:07.065Z,28.79
2022-08-05T09:38:12.415Z,28.96
2022-08-05T09:39:16.776Z,29.12
2022-08-05T09:40:07.067Z,29.40
2022-08-05T09:41:06.006Z,29.73
2022-08-05T09:42:07.831Z,29.96
2022-08-05T09:43:05.976Z,29.91
2022-08-05T09:44:05.967Z,29.71
2022-08-05T09:45:17.440Z,29.24
2022-08-05T09:46:08.850Z,28.86
2022-08-05T09:47:12.463Z,28.90
2022-08-05T09:48:06.908Z,29.04
2022-08-05T09:49:07.557Z,29.40
2022-08-05T09:50:06.891Z,29.77
2022-08-05T09:51:15.171Z,30.14
2022-08-05T09:52:06.862Z,30.39
2022-08-05T09:53:05.847Z,30.64
2022-08-05T09:54:05.840Z,30.65
2022-08-05T09:55:55.497Z,30.53
2022-08-05T09:56:12.951Z,30.24
2022-08-05T09:57:06.793Z,30.05
2022-08-05T09:58:06.783Z,29.93
2022-08-05T09:59:05.783Z,30.02
2022-08-05T10:00:08.206Z,29.80
2022-08-05T10:01:15.181Z,29.74
2022-08-05T10:02:06.735Z,29.78
2022-08-05T10:03:05.760Z,29.58
2022-08-05T10:04:10.591Z,29.62
2022-08-05T10:05:07.988Z,29.80
2022-08-05T10:06:14.751Z,29.95
2022-08-05T10:07:20.002Z,30.13
2022-08-05T10:08:36.706Z,30.40
2022-08-05T10:09:06.649Z,30.68
2022-08-05T10:10:15.128Z,30.92
2022-08-05T10:11:06.610Z,31.02
2022-08-05T10:12:07.601Z,31.04
2022-08-05T10:13:09.811Z,31.05
2022-08-05T10:14:05.593Z,31.14
2022-08-05T10:15:05.567Z,31.23
2022-08-05T10:16:05.553Z,31.34
2022-08-05T10:17:05.535Z,31.33
2022-08-05T10:18:06.532Z,31.22
2022-08-05T10:19:09.386Z,31.15
2022-08-05T10:20:10.086Z,31.15
2022-08-05T10:21:11.834Z,31.17
2022-08-05T10:22:06.476Z,31.08
2022-08-05T10:23:05.466Z,31.02
2022-08-05T10:24:09.334Z,30.80
2022-08-05T10:25:05.437Z,30.64
2022-08-05T10:26:05.426Z,30.48
2022-08-05T10:27:05.441Z,30.13
2022-08-05T10:28:16.611Z,29.92
2022-08-05T10:29:06.398Z,29.83
2022-08-05T10:30:41.278Z,30.07
2022-08-05T10:32:50.751Z,30.36
2022-08-05T10:32:54.722Z,30.73
2022-08-05T10:33:09.375Z,30.77
2022-08-05T10:34:07.186Z,31.05
2022-08-05T10:35:05.313Z,31.29
2022-08-05T10:36:05.302Z,31.48
2022-08-05T10:37:05.282Z,31.63
2022-08-05T10:38:05.273Z,31.87
2022-08-05T10:39:10.283Z,32.02
2022-08-05T10:40:17.953Z,32.16
2022-08-05T10:41:06.261Z,31.90
2022-08-05T10:42:05.220Z,31.64
2022-08-05T10:43:05.208Z,31.29
2022-08-05T10:44:05.641Z,30.90
2022-08-05T10:45:21.543Z,30.49
2022-08-05T10:46:07.103Z,30.37
2022-08-05T10:47:05.157Z,30.49
2022-08-05T10:48:31.441Z,30.68
2022-08-05T10:49:10.127Z,31.01
2022-08-05T10:50:20.856Z,31.11
2022-08-05T10:51:06.109Z,31.37
2022-08-05T10:52:10.510Z,31.34
2022-08-05T10:53:05.080Z,31.32
2022-08-05T10:54:23.017Z,31.42
2022-08-05T10:55:06.061Z,31.52
2022-08-05T10:56:21.135Z,31.57
2022-08-05T10:57:06.031Z,31.46
2022-08-05T10:58:05.025Z,31.49
2022-08-05T10:59:11.427Z,31.57
2022-08-05T11:00:09.079Z,32.01
2022-08-05T11:01:05.981Z,32.02
2022-08-05T11:02:05.609Z,31.91
2022-08-05T11:03:25.599Z,32.04
2022-08-05T11:04:06.245Z,32.23
2022-08-05T11:05:04.934Z,32.48
2022-08-05T11:06:04.939Z,32.60
2022-08-05T11:07:05.856Z,32.57
2022-08-05T11:08:33.777Z,32.41
2022-08-05T11:09:05.897Z,32.48
2022-08-05T11:10:09.962Z,32.54
2022-08-05T11:11:14.554Z,32.46
2022-08-05T11:12:05.849Z,32.63
2022-08-05T11:13:04.829Z,32.80
2022-08-05T11:14:04.879Z,32.83
2022-08-05T11:15:19.786Z,32.91
2022-08-05T11:16:05.791Z,33.20
2022-08-05T11:17:53.363Z,33.37
2022-08-05T11:18:05.884Z,33.39
2022-08-05T11:20:10.007Z,33.63
2022-08-05T11:20:17.545Z,33.51
2022-08-05T11:21:11.463Z,33.62
2022-08-05T11:22:05.725Z,33.54
2022-08-05T11:23:08.814Z,33.20
2022-08-05T11:24:14.797Z,32.83
2022-08-05T11:26:03.374Z,32.26
2022-08-05T11:26:08.769Z,32.13
2022-08-05T11:27:04.696Z,32.04
2022-08-05T11:28:04.667Z,31.90
2022-08-05T11:29:13.498Z,31.94
2022-08-05T11:30:05.638Z,31.98
2022-08-05T11:31:06.263Z,32.04
2022-08-05T11:32:04.795Z,31.94
2022-08-05T11:33:04.579Z,31.78
2022-08-05T11:34:04.575Z,31.60
2022-08-05T11:35:04.560Z,31.49
2022-08-05T11:36:08.061Z,31.44
2022-08-05T11:37:06.271Z,31.59
2022-08-05T11:38:29.335Z,31.64
2022-08-05T11:39:05.599Z,31.74
2022-08-05T11:40:04.717Z,32.01
2022-08-05T11:41:34.815Z,32.31
2022-08-05T11:42:05.481Z,32.43
2022-08-05T11:43:04.470Z,32.76
2022-08-05T11:44:07.491Z,33.01
2022-08-05T11:45:05.396Z,33.22
2022-08-05T11:46:15.501Z,33.35
2022-08-05T11:47:11.029Z,33.33
2022-08-05T11:48:05.396Z,33.41
2022-08-05T11:49:04.387Z,33.52
2022-08-05T11:50:04.379Z,33.64
2022-08-05T11:51:04.371Z,33.78
2022-08-05T11:52:11.271Z,33.86
2022-08-05T11:53:09.862Z,34.06
2022-08-05T11:54:04.506Z,34.29
2022-08-05T11:55:07.116Z,34.30
2022-08-05T11:56:04.291Z,34.50
2022-08-05T11:57:08.177Z,34.82
2022-08-05T11:58:09.498Z,35.10
2022-08-05T11:59:05.261Z,34.99
2022-08-05T12:00:05.242Z,34.94
2022-08-05T12:01:08.272Z,34.90
2022-08-05T12:02:04.232Z,34.85
2022-08-05T12:03:04.270Z,34.75
2022-08-05T12:04:04.227Z,34.59
2022-08-05T12:05:08.262Z,34.26
2022-08-05T12:06:06.521Z,33.82
2022-08-05T12:07:05.187Z,33.30
2022-08-05T12:08:10.009Z,33.13
2022-08-05T12:09:05.127Z,33.03
2022-08-05T12:10:09.647Z,32.79
2022-08-05T12:11:05.848Z,32.57
2022-08-05T12:12:04.099Z,32.28
2022-08-05T12:13:17.352Z,32.39
2022-08-05T12:14:05.069Z,32.63
2022-08-05T12:15:04.051Z,32.79
2022-08-05T12:16:04.052Z,32.99
2022-08-05T12:17:05.106Z,33.20
2022-08-05T12:18:10.525Z,33.42
2022-08-05T12:19:05.002Z,33.52
2022-08-05T12:20:26.399Z,33.14
2022-08-05T12:21:04.984Z,33.37
2022-08-05T12:22:03.971Z,33.51
2022-08-05T12:23:04.964Z,33.69
2022-08-05T12:24:04.958Z,33.92
2022-08-05T12:25:03.938Z,34.03
2022-08-05T12:26:03.925Z,34.03
2022-08-05T12:27:09.794Z,33.86
2022-08-05T12:28:05.174Z,33.71
2022-08-05T12:29:03.887Z,33.58
2022-08-05T12:30:03.929Z,33.69
2022-08-05T12:31:03.850Z,33.73
2022-08-05T12:32:04.547Z,33.69
2022-08-05T12:33:07.544Z,33.86
2022-08-05T12:34:04.821Z,34.04
2022-08-05T12:35:04.080Z,34.23
2022-08-05T12:36:03.884Z,34.29
2022-08-05T12:37:03.789Z,34.44
2022-08-05T12:38:03.782Z,34.64
2022-08-05T12:39:03.795Z,34.60
2022-08-05T12:40:10.504Z,34.56
2022-08-05T12:41:05.622Z,34.63
2022-08-05T12:42:03.737Z,34.64
2022-08-05T12:43:03.714Z,34.66
2022-08-05T12:44:03.733Z,34.76
2022-08-05T12:45:03.685Z,34.91
2022-08-05T12:46:04.675Z,34.83
2022-08-05T12:47:03.844Z,34.80
2022-08-05T12:48:27.592Z,34.86
2022-08-05T12:49:12.878Z,34.72
2022-08-05T12:50:07.267Z,34.66
2022-08-05T12:51:04.608Z,34.63
2022-08-05T12:52:13.746Z,34.79
2022-08-05T12:53:04.595Z,34.79
2022-08-05T12:54:03.772Z,34.67
2022-08-05T12:55:03.579Z,34.59
2022-08-05T12:56:03.550Z,34.60